createdAt,value
2023-05-15T00:01:49.437Z,8.05
2023-05-15T00:03:52.659Z,8.98
2023-05-15T00:05:56.104Z,8.90
2023-05-15T00:07:59.075Z,9.82
2023-05-15T00:10:02.244Z,9.02
2023-05-15T00:12:07.493Z,9.02
2023-05-15T00:14:10.564Z,8.77
2023-05-15T00:16:13.626Z,7.25
2023-05-15T00:18:16.776Z,7.50
2023-05-15T00:20:19.742Z,8.07
2023-05-15T00:22:22.784Z,9.45
2023-05-15T00:24:25.857Z,9.73
2023-05-15T00:26:28.764Z,10.10
2023-05-15T00:28:33.153Z,8.55
2023-05-15T00:30:36.144Z,7.13
2023-05-15T00:32:39.233Z,8.85
2023-05-15T00:34:42.218Z,8.20
2023-05-15T00:36:45.599Z,9.65
2023-05-15T00:38:48.529Z,10.18
2023-05-15T00:40:52.643Z,8.75
2023-05-15T00:42:56.651Z,8.82
2023-05-15T00:45:02.198Z,16.58
2023-05-15T00:47:07.636Z,9.88
2023-05-15T00:49:13.858Z,8.40
2023-05-15T00:51:17.247Z,11.20
2023-05-15T00:53:20.338Z,7.10
2023-05-15T00:55:24.081Z,8.35
2023-05-15T00:57:28.187Z,9.45
2023-05-15T00:59:33.355Z,11.55
2023-05-15T01:01:38.366Z,10.15
2023-05-15T01:03:41.469Z,8.68
2023-05-15T01:05:45.420Z,9.23
2023-05-15T01:07:57.702Z,8.30
2023-05-15T01:10:02.414Z,8.00
2023-05-15T01:12:09.692Z,8.20
2023-05-15T01:14:12.705Z,8.82
2023-05-15T01:16:15.757Z,7.30
2023-05-15T01:18:20.146Z,10.50
2023-05-15T01:20:23.990Z,8.13
2023-05-15T01:22:45.454Z,9.73
2023-05-15T01:25:17.865Z,7.10
2023-05-15T01:27:26.335Z,7.10
2023-05-15T01:29:33.044Z,7.05
2023-05-15T01:31:38.179Z,6.95
2023-05-15T01:33:46.360Z,7.20
2023-05-15T01:35:59.788Z,8.38
2023-05-15T01:38:13.557Z,8.40
2023-05-15T01:40:19.014Z,7.07
2023-05-15T01:42:30.958Z,8.10
2023-05-15T01:44:38.274Z,8.90
2023-05-15T01:46:46.156Z,8.43
2023-05-15T01:48:52.015Z,10.13
2023-05-15T01:50:58.747Z,8.40
2023-05-15T01:53:03.524Z,8.65
2023-05-15T01:55:09.198Z,6.80
2023-05-15T01:57:13.408Z,7.38
2023-05-15T01:59:19.508Z,10.23
2023-05-15T02:01:25.118Z,8.75
2023-05-15T02:03:28.498Z,8.20
2023-05-15T02:05:32.126Z,8.90
2023-05-15T02:07:35.675Z,6.35
2023-05-15T02:09:40.027Z,8.45
2023-05-15T02:11:43.166Z,6.53
2023-05-15T02:13:46.598Z,7.45
2023-05-15T02:15:51.008Z,9.70
2023-05-15T02:17:54.107Z,9.43
2023-05-15T02:19:58.316Z,7.13
2023-05-15T02:22:01.327Z,10.35
2023-05-15T02:24:04.648Z,10.82
2023-05-15T02:26:18.871Z,8.38
2023-05-15T02:28:29.248Z,8.27
2023-05-15T02:30:39.189Z,11.30
2023-05-15T02:32:56.830Z,10.07
2023-05-15T02:35:10.409Z,8.07
2023-05-15T02:37:18.527Z,10.45
2023-05-15T02:39:25.397Z,10.13
2023-05-15T02:41:29.997Z,9.07
2023-05-15T02:43:37.418Z,8.88
2023-05-15T02:45:41.332Z,7.18
2023-05-15T02:47:46.082Z,7.88
2023-05-15T02:49:49.598Z,7.68
2023-05-15T02:51:53.255Z,9.23
2023-05-15T02:53:56.185Z,10.15
2023-05-15T02:55:59.185Z,8.55
2023-05-15T02:58:02.958Z,12.38
2023-05-15T03:00:09.402Z,8.05
2023-05-15T03:02:12.270Z,6.68
2023-05-15T03:04:17.114Z,8.82
2023-05-15T03:06:20.074Z,8.85
2023-05-15T03:08:22.970Z,8.13
2023-05-15T03:10:26.121Z,8.18
2023-05-15T03:12:29.057Z,8.52
2023-05-15T03:14:31.931Z,8.23
2023-05-15T03:16:37.281Z,8.10
2023-05-15T03:20:44.644Z,8.73
2023-05-15T03:22:47.562Z,10.00
2023-05-15T03:24:50.706Z,9.30
2023-05-15T03:26:53.597Z,9.35
2023-05-15T03:28:56.545Z,9.65
2023-05-15T03:30:59.555Z,9.45
2023-05-15T03:33:04.265Z,9.63
2023-05-15T03:35:07.807Z,8.80
2023-05-15T03:37:12.385Z,8.23
2023-05-15T03:39:15.607Z,7.68
2023-05-15T03:41:18.485Z,8.68
2023-05-15T03:43:21.301Z,9.02
2023-05-15T03:45:24.981Z,10.20
2023-05-15T03:47:28.085Z,10.07
2023-05-15T03:49:31.033Z,11.55
2023-05-15T03:51:34.111Z,8.48
2023-05-15T03:53:38.685Z,8.73
2023-05-15T03:55:41.930Z,10.15
2023-05-15T03:57:44.980Z,8.98
2023-05-15T03:59:48.774Z,15.43
2023-05-15T04:02:03.528Z,8.65
2023-05-15T04:04:07.496Z,13.45
2023-05-15T04:06:10.620Z,8.57
2023-05-15T04:08:13.544Z,8.27
2023-05-15T04:10:18.162Z,9.55
2023-05-15T04:12:21.106Z,9.55
2023-05-15T04:14:24.355Z,9.32
2023-05-15T04:16:27.314Z,11.52
2023-05-15T04:18:30.715Z,11.13
2023-05-15T04:20:34.386Z,8.23
2023-05-15T04:22:37.359Z,15.48
2023-05-15T04:24:40.176Z,9.38
2023-05-15T04:26:44.690Z,9.77
2023-05-15T04:29:00.154Z,9.00
2023-05-15T04:31:07.284Z,10.63
2023-05-15T04:33:10.224Z,10.27
2023-05-15T04:35:14.498Z,10.10
2023-05-15T04:37:17.344Z,8.20
2023-05-15T04:39:20.329Z,8.82
2023-05-15T04:41:23.205Z,8.95
2023-05-15T04:43:27.626Z,11.80
2023-05-15T04:45:30.516Z,12.38
2023-05-15T04:47:33.598Z,8.77
2023-05-15T04:49:36.394Z,14.32
2023-05-15T04:51:39.555Z,15.10
2023-05-15T04:53:42.384Z,11.50
2023-05-15T04:55:45.657Z,10.45
2023-05-15T04:57:48.456Z,11.27
2023-05-15T04:59:53.031Z,11.27
2023-05-15T05:01:56.186Z,11.18
2023-05-15T05:03:59.315Z,12.82
2023-05-15T05:06:02.230Z,11.32
2023-05-15T05:08:05.713Z,10.95
2023-05-15T05:10:09.969Z,11.73
2023-05-15T05:12:13.088Z,12.48
2023-05-15T05:14:16.412Z,10.45
2023-05-15T05:16:21.042Z,12.25
2023-05-15T05:18:24.233Z,14.50
2023-05-15T05:20:27.362Z,11.93
2023-05-15T05:22:31.433Z,11.80
2023-05-15T05:24:38.027Z,12.98
2023-05-15T05:26:43.550Z,13.38
2023-05-15T05:30:49.291Z,13.27
2023-05-15T05:32:53.879Z,11.82
2023-05-15T05:34:56.712Z,15.70
2023-05-15T05:36:59.615Z,15.30
2023-05-15T05:39:02.548Z,14.18
2023-05-15T05:41:05.802Z,13.23
2023-05-15T05:43:08.712Z,13.93
2023-05-15T05:45:12.398Z,15.93
2023-05-15T05:47:15.302Z,13.50
2023-05-15T05:49:19.826Z,12.38
2023-05-15T05:51:22.781Z,12.45
2023-05-15T05:53:25.776Z,12.98
2023-05-15T05:55:28.795Z,12.75
2023-05-15T05:57:31.863Z,13.85
2023-05-15T05:59:36.155Z,11.57
2023-05-15T06:01:39.362Z,13.35
2023-05-15T06:03:44.145Z,11.60
2023-05-15T06:05:49.008Z,11.02
2023-05-15T06:07:51.906Z,13.48
2023-05-15T06:09:54.934Z,15.23
2023-05-15T06:11:57.839Z,10.93
2023-05-15T06:14:01.064Z,10.52
2023-05-15T06:16:04.298Z,11.52
2023-05-15T06:18:07.489Z,9.82
2023-05-15T06:20:11.134Z,8.55
2023-05-15T06:22:15.660Z,10.10
2023-05-15T06:24:18.518Z,11.38
2023-05-15T06:26:22.234Z,11.07
2023-05-15T06:28:25.252Z,8.50
2023-05-15T06:30:28.306Z,9.93
2023-05-15T06:32:33.113Z,8.90
2023-05-15T06:34:37.475Z,8.85
2023-05-15T06:36:40.637Z,10.52
2023-05-15T06:38:45.075Z,11.13
2023-05-15T06:40:47.947Z,7.18
2023-05-15T06:42:51.167Z,9.48
2023-05-15T06:44:54.487Z,11.10
2023-05-15T06:46:57.794Z,12.40
2023-05-15T06:49:00.890Z,6.88
2023-05-15T06:51:04.152Z,9.27
2023-05-15T06:53:07.103Z,7.35
2023-05-15T06:55:11.691Z,7.70
2023-05-15T06:57:14.617Z,7.30
2023-05-15T06:59:17.623Z,6.00
2023-05-15T07:01:20.575Z,7.82
2023-05-15T07:03:23.756Z,7.10
2023-05-15T07:05:26.966Z,10.23
2023-05-15T07:07:30.570Z,6.95
2023-05-15T07:09:33.702Z,7.10
2023-05-15T07:11:39.102Z,7.00
2023-05-15T07:13:42.058Z,7.45
2023-05-15T07:15:45.021Z,8.35
2023-05-15T07:17:48.046Z,5.75
2023-05-15T07:19:51.038Z,7.50
2023-05-15T07:21:53.886Z,7.80
2023-05-15T07:23:56.914Z,7.90
2023-05-15T07:25:59.808Z,8.68
2023-05-15T07:28:04.728Z,5.22
2023-05-15T07:30:08.948Z,6.93
2023-05-15T07:32:11.935Z,7.68
2023-05-15T07:34:14.841Z,7.72
2023-05-15T07:36:17.906Z,5.50
2023-05-15T07:38:20.705Z,11.63
2023-05-15T07:40:23.860Z,5.32
2023-05-15T07:42:27.023Z,6.53
2023-05-15T07:44:31.383Z,7.63
2023-05-15T07:46:35.590Z,8.00
2023-05-15T07:48:38.615Z,5.53
2023-05-15T07:50:41.584Z,5.65
2023-05-15T07:52:45.044Z,5.72
2023-05-15T07:54:48.159Z,4.88
2023-05-15T07:56:51.350Z,6.57
2023-05-15T07:58:54.423Z,5.53
2023-05-15T08:00:58.831Z,8.15
2023-05-15T08:03:02.111Z,5.68
2023-05-15T08:05:05.987Z,6.05
2023-05-15T08:07:08.918Z,5.25
2023-05-15T08:09:13.148Z,6.30
2023-05-15T08:11:16.256Z,6.60
2023-05-15T08:13:19.206Z,12.75
2023-05-15T08:15:22.759Z,6.38
2023-05-15T08:17:27.393Z,7.72
2023-05-15T08:19:30.405Z,10.48
2023-05-15T08:21:34.252Z,14.48
2023-05-15T08:23:37.185Z,11.25
2023-05-15T08:25:40.208Z,12.73
2023-05-15T08:27:43.145Z,11.73
2023-05-15T08:29:46.305Z,10.02
2023-05-15T08:31:49.236Z,7.72
2023-05-15T08:33:53.782Z,11.52
2023-05-15T08:35:56.674Z,19.20
2023-05-15T08:38:00.025Z,8.60
2023-05-15T08:40:05.595Z,6.88
2023-05-15T08:42:15.424Z,21.08
2023-05-15T08:44:18.442Z,15.75
2023-05-15T08:46:22.291Z,13.98
2023-05-15T08:48:27.457Z,19.65
2023-05-15T08:50:32.018Z,35.83
2023-05-15T08:52:35.190Z,33.40
2023-05-15T08:54:39.351Z,27.40
2023-05-15T08:56:42.788Z,15.77
2023-05-15T08:58:46.538Z,14.77
2023-05-15T09:00:50.411Z,13.00
2023-05-15T09:02:55.245Z,11.95
2023-05-15T09:04:58.348Z,14.05
2023-05-15T09:07:04.524Z,14.95
2023-05-15T09:09:09.816Z,12.27
2023-05-15T09:11:14.068Z,13.38
2023-05-15T09:13:17.758Z,17.65
2023-05-15T09:15:25.722Z,20.23
2023-05-15T09:17:28.797Z,13.88
2023-05-15T09:19:34.611Z,16.45
2023-05-15T09:21:37.557Z,19.50
2023-05-15T09:23:41.940Z,15.80
2023-05-15T09:25:45.491Z,16.60
2023-05-15T09:27:48.548Z,17.17
2023-05-15T09:29:54.632Z,17.58
2023-05-15T09:31:57.928Z,16.13
2023-05-15T09:34:02.415Z,15.07
2023-05-15T09:36:07.263Z,14.07
2023-05-15T09:38:12.398Z,15.82
2023-05-15T09:40:19.751Z,14.90
2023-05-15T09:42:25.330Z,14.45
2023-05-15T09:44:28.449Z,14.95
2023-05-15T09:46:35.449Z,16.35
2023-05-15T09:48:39.304Z,15.05
2023-05-15T09:50:42.550Z,15.20
2023-05-15T09:52:46.120Z,19.17
2023-05-15T09:54:50.695Z,15.15
2023-05-15T09:56:55.430Z,14.70
2023-05-15T09:59:00.022Z,16.20
2023-05-15T10:01:04.433Z,19.10
2023-05-15T10:03:09.483Z,16.98
2023-05-15T10:05:12.612Z,17.20
2023-05-15T10:07:27.958Z,19.30
2023-05-15T10:09:34.418Z,17.17
2023-05-15T10:11:39.308Z,20.55
2023-05-15T10:13:43.770Z,15.25
2023-05-15T10:15:50.168Z,17.23
2023-05-15T10:17:53.611Z,14.73
2023-05-15T10:20:01.085Z,17.10
2023-05-15T10:22:05.923Z,13.93
2023-05-15T10:24:11.248Z,13.40
2023-05-15T10:26:21.894Z,12.73
2023-05-15T10:28:26.098Z,17.15
2023-05-15T10:30:32.698Z,11.70
2023-05-15T10:32:36.774Z,13.25
2023-05-15T10:34:40.154Z,13.15
2023-05-15T10:36:43.356Z,10.27
2023-05-15T10:38:47.216Z,9.43
2023-05-15T10:40:57.614Z,12.40
2023-05-15T10:43:07.091Z,8.52
2023-05-15T10:45:11.001Z,9.90
2023-05-15T10:47:15.943Z,9.23
2023-05-15T10:49:19.216Z,8.43
2023-05-15T10:51:27.796Z,10.48
2023-05-15T10:53:32.109Z,10.68
2023-05-15T10:55:37.388Z,11.15
2023-05-15T10:57:40.464Z,7.90
2023-05-15T10:59:44.472Z,8.88
2023-05-15T11:01:48.477Z,12.30
2023-05-15T11:04:04.712Z,7.82
2023-05-15T11:06:10.052Z,6.75
2023-05-15T11:10:39.673Z,6.80
2023-05-15T11:12:58.151Z,6.97
2023-05-15T11:15:19.994Z,7.03
2023-05-15T11:17:24.813Z,7.97
2023-05-15T11:19:35.684Z,9.48
2023-05-15T11:21:47.053Z,7.35
2023-05-15T11:24:05.269Z,7.32
2023-05-15T11:26:08.636Z,6.95
2023-05-15T11:28:22.344Z,8.50
2023-05-15T11:30:35.997Z,7.40
2023-05-15T11:32:43.429Z,10.02
2023-05-15T11:34:50.683Z,6.82
2023-05-15T11:36:53.634Z,8.13
2023-05-15T11:38:56.885Z,8.70
2023-05-15T11:41:03.617Z,6.05
2023-05-15T11:43:16.964Z,3.80
2023-05-15T11:45:22.829Z,4.55
2023-05-15T11:47:26.073Z,9.00
2023-05-15T11:49:29.205Z,8.20
2023-05-15T11:51:35.297Z,3.83
2023-05-15T11:53:39.906Z,3.45
2023-05-15T11:55:44.556Z,5.35
2023-05-15T11:57:47.814Z,4.80
2023-05-15T11:59:54.636Z,3.97
2023-05-15T12:01:59.796Z,6.70
2023-05-15T12:04:02.918Z,15.35
2023-05-15T12:06:06.756Z,16.00
2023-05-15T12:08:12.650Z,9.82
2023-05-15T12:10:16.047Z,32.53
2023-05-15T12:12:19.087Z,17.10
2023-05-15T12:14:28.720Z,27.90
2023-05-15T12:16:32.051Z,6.93
2023-05-15T12:18:35.278Z,12.10
2023-05-15T12:20:39.734Z,6.65
2023-05-15T12:22:42.989Z,4.85
2023-05-15T12:24:47.501Z,7.78
2023-05-15T12:26:50.410Z,7.70
2023-05-15T12:28:54.752Z,6.50
2023-05-15T12:30:58.414Z,7.05
2023-05-15T12:33:04.250Z,7.80
2023-05-15T12:35:07.941Z,3.78
2023-05-15T12:37:13.692Z,7.43
2023-05-15T12:39:16.764Z,3.45
2023-05-15T12:41:21.561Z,3.67
2023-05-15T12:43:25.743Z,6.50
2023-05-15T12:45:28.699Z,3.72
2023-05-15T12:47:31.650Z,4.97
2023-05-15T12:49:37.131Z,4.93
2023-05-15T12:51:43.530Z,6.45
2023-05-15T12:53:48.353Z,7.05
2023-05-15T12:55:51.829Z,6.80
2023-05-15T12:58:02.446Z,7.18
2023-05-15T13:00:06.320Z,7.43
2023-05-15T13:02:13.711Z,13.25
2023-05-15T13:04:17.350Z,4.65
2023-05-15T13:06:23.773Z,10.07
2023-05-15T13:08:27.137Z,3.97
2023-05-15T13:10:34.071Z,4.60
2023-05-15T13:12:38.106Z,2.78
2023-05-15T13:14:42.865Z,2.75
2023-05-15T13:16:47.136Z,4.70
2023-05-15T13:18:50.433Z,7.03
2023-05-15T13:20:53.337Z,3.67
2023-05-15T13:22:56.300Z,2.95
2023-05-15T13:24:59.441Z,3.30
2023-05-15T13:27:02.340Z,3.53
2023-05-15T13:29:05.221Z,3.00
2023-05-15T13:31:10.180Z,4.28
2023-05-15T13:33:13.695Z,5.25
2023-05-15T13:35:16.863Z,6.35
2023-05-15T13:37:19.842Z,8.25
2023-05-15T13:39:22.836Z,4.13
2023-05-15T13:41:26.496Z,3.83
2023-05-15T13:43:29.581Z,8.63
2023-05-15T13:45:32.597Z,6.30
2023-05-15T13:47:37.422Z,5.55
2023-05-15T13:49:40.618Z,4.40
2023-05-15T13:51:43.511Z,3.03
2023-05-15T13:53:46.401Z,4.38
2023-05-15T13:55:49.437Z,2.83
2023-05-15T13:57:53.484Z,5.03
2023-05-15T13:59:56.474Z,2.03
2023-05-15T14:01:59.428Z,7.25
2023-05-15T14:04:04.829Z,1.27
2023-05-15T14:06:08.046Z,7.10
2023-05-15T14:08:11.408Z,1.85
2023-05-15T14:10:14.440Z,2.22
2023-05-15T14:12:17.977Z,5.43
2023-05-15T14:14:20.950Z,26.70
2023-05-15T14:16:23.915Z,5.25
2023-05-15T14:18:26.879Z,3.60
2023-05-15T14:20:31.404Z,12.18
2023-05-15T14:22:34.277Z,4.97
2023-05-15T14:24:37.493Z,2.90
2023-05-15T14:26:40.536Z,4.05
2023-05-15T14:28:43.589Z,11.10
2023-05-15T14:30:46.501Z,2.92
2023-05-15T14:32:49.557Z,4.60
2023-05-15T14:34:52.774Z,5.05
2023-05-15T14:36:57.619Z,9.13
2023-05-15T14:39:00.750Z,20.05
2023-05-15T14:41:03.766Z,27.05
2023-05-15T14:43:06.638Z,11.20
2023-05-15T14:45:10.731Z,23.73
2023-05-15T14:47:14.007Z,8.98
2023-05-15T14:49:16.868Z,16.67
2023-05-15T14:51:20.153Z,16.55
2023-05-15T14:53:24.969Z,18.02
2023-05-15T14:55:27.838Z,53.20
2023-05-15T14:57:30.826Z,4.90
2023-05-15T14:59:33.699Z,7.72
2023-05-15T15:01:36.589Z,23.13
2023-05-15T15:03:39.578Z,3.22
2023-05-15T15:05:42.578Z,2.08
2023-05-15T15:08:03.953Z,2.85
2023-05-15T15:10:09.575Z,2.65
2023-05-15T15:14:15.030Z,1.55
2023-05-15T15:16:17.975Z,3.10
2023-05-15T15:18:21.800Z,5.05
2023-05-15T15:20:25.770Z,2.38
2023-05-15T15:22:28.876Z,3.45
2023-05-15T15:24:31.737Z,2.25
2023-05-15T15:26:36.224Z,2.25
2023-05-15T15:28:39.219Z,6.10
2023-05-15T15:30:42.199Z,2.63
2023-05-15T15:32:45.866Z,4.22
2023-05-15T15:34:48.936Z,2.88
2023-05-15T15:36:51.766Z,4.68
2023-05-15T15:38:54.729Z,5.72
2023-05-15T15:40:57.718Z,4.15
2023-05-15T15:43:02.144Z,8.77
2023-05-15T15:45:06.215Z,5.73
2023-05-15T15:47:09.385Z,8.18
2023-05-15T15:49:12.386Z,6.20
2023-05-15T15:51:15.385Z,4.55
2023-05-15T15:53:18.313Z,2.95
2023-05-15T15:55:21.522Z,2.72
2023-05-15T15:57:24.472Z,2.55
2023-05-15T15:59:29.007Z,2.03
2023-05-15T16:01:33.080Z,2.60
2023-05-15T16:03:36.595Z,3.60
2023-05-15T16:06:04.124Z,4.90
2023-05-15T16:08:35.058Z,4.60
2023-05-15T16:14:01.125Z,4.85
2023-05-15T16:16:52.320Z,6.15
2023-05-15T16:19:21.107Z,4.45
2023-05-15T16:21:50.234Z,11.05
2023-05-15T16:24:21.838Z,4.57
2023-05-15T16:26:54.079Z,6.03
2023-05-15T16:29:22.739Z,11.57
2023-05-15T16:31:27.573Z,4.28
2023-05-15T16:33:32.541Z,5.80
2023-05-15T16:35:37.098Z,8.98
2023-05-15T16:37:40.102Z,22.50
2023-05-15T16:39:43.369Z,9.95
2023-05-15T16:41:46.350Z,11.40
2023-05-15T16:43:50.437Z,10.50
2023-05-15T16:45:53.488Z,11.50
2023-05-15T16:47:58.046Z,10.23
2023-05-15T16:50:01.238Z,11.20
2023-05-15T16:52:04.559Z,10.18
2023-05-15T16:54:07.708Z,8.07
2023-05-15T16:56:12.535Z,7.82
2023-05-15T16:58:15.929Z,16.25
2023-05-15T17:00:21.180Z,12.18
2023-05-15T17:02:24.072Z,12.57
2023-05-15T17:04:30.795Z,13.10
2023-05-15T17:06:35.157Z,10.50
2023-05-15T17:08:38.031Z,12.25
2023-05-15T17:10:41.467Z,12.15
2023-05-15T17:12:44.713Z,9.10
2023-05-15T17:14:47.712Z,11.85
2023-05-15T17:16:50.816Z,8.45
2023-05-15T17:18:54.057Z,11.32
2023-05-15T17:20:58.576Z,14.68
2023-05-15T17:23:01.519Z,14.15
2023-05-15T17:25:04.951Z,10.90
2023-05-15T17:27:07.845Z,13.60
2023-05-15T17:29:11.233Z,17.42
2023-05-15T17:31:14.432Z,8.50
2023-05-15T17:33:17.269Z,10.32
2023-05-15T17:35:20.168Z,9.15
2023-05-15T17:37:24.470Z,8.13
2023-05-15T17:39:27.633Z,8.48
2023-05-15T17:41:30.665Z,12.27
2023-05-15T17:43:33.635Z,14.52
2023-05-15T17:45:36.631Z,14.00
2023-05-15T17:47:39.617Z,11.77
2023-05-15T17:49:42.456Z,10.60
2023-05-15T17:51:45.509Z,11.65
2023-05-15T17:53:50.120Z,8.98
2023-05-15T17:55:53.473Z,10.13
2023-05-15T17:57:56.327Z,8.95
2023-05-15T17:59:59.565Z,31.17
2023-05-15T18:02:03.213Z,56.50
2023-05-15T18:04:06.307Z,94.68
2023-05-15T18:06:09.285Z,70.40
2023-05-15T18:08:12.306Z,32.10
2023-05-15T18:10:16.623Z,18.23
2023-05-15T18:12:19.764Z,14.43
2023-05-15T18:14:22.667Z,13.57
2023-05-15T18:16:25.954Z,20.83
2023-05-15T18:18:29.255Z,53.95
2023-05-15T18:20:32.250Z,122.80
2023-05-15T18:22:35.575Z,96.07
2023-05-15T18:24:38.825Z,40.00
2023-05-15T18:26:43.166Z,21.80
2023-05-15T18:28:46.178Z,27.15
2023-05-15T18:30:49.240Z,27.70
2023-05-15T18:32:52.713Z,20.55
2023-05-15T18:34:55.638Z,11.60
2023-05-15T18:36:58.588Z,11.50
2023-05-15T18:39:02.850Z,16.90
2023-05-15T18:41:06.235Z,7.60
2023-05-15T18:43:11.405Z,5.97
2023-05-15T18:45:14.485Z,5.47
2023-05-15T18:47:17.588Z,5.88
2023-05-15T18:49:20.936Z,5.40
2023-05-15T18:51:24.616Z,7.93
2023-05-15T18:53:27.798Z,12.98
2023-05-15T18:55:31.082Z,15.30
2023-05-15T18:57:34.159Z,10.27
2023-05-15T18:59:38.510Z,5.38
2023-05-15T19:01:41.575Z,6.18
2023-05-15T19:03:44.543Z,5.70
2023-05-15T19:05:47.588Z,7.85
2023-05-15T19:07:50.419Z,5.95
2023-05-15T19:09:53.385Z,8.68
2023-05-15T19:11:56.460Z,9.18
2023-05-15T19:13:59.360Z,10.88
2023-05-15T19:16:04.910Z,8.13
2023-05-15T19:18:08.111Z,5.38
2023-05-15T19:20:12.388Z,8.23
2023-05-15T19:22:15.448Z,3.47
2023-05-15T19:24:18.312Z,4.55
2023-05-15T19:26:22.080Z,5.40
2023-05-15T19:28:25.157Z,4.78
2023-05-15T19:30:28.256Z,4.60
2023-05-15T19:32:33.042Z,5.53
2023-05-15T19:34:36.785Z,8.43
2023-05-15T19:36:39.713Z,5.45
2023-05-15T19:38:42.649Z,10.10
2023-05-15T19:40:45.937Z,3.80
2023-05-15T19:42:48.814Z,4.15
2023-05-15T19:44:51.770Z,4.45
2023-05-15T19:46:54.729Z,3.88
2023-05-15T19:48:59.047Z,6.18
2023-05-15T19:51:02.129Z,5.75
2023-05-15T19:53:05.044Z,4.85
2023-05-15T19:55:08.747Z,6.53
2023-05-15T19:57:11.818Z,5.25
2023-05-15T19:59:14.830Z,5.32
2023-05-15T20:01:18.340Z,10.40
2023-05-15T20:03:22.124Z,10.35
2023-05-15T20:05:26.596Z,5.80
2023-05-15T20:07:29.643Z,4.53
2023-05-15T20:09:32.527Z,4.93
2023-05-15T20:11:35.398Z,5.90
2023-05-15T20:13:38.784Z,5.68
2023-05-15T20:15:42.707Z,7.32
2023-05-15T20:17:45.630Z,5.40
2023-05-15T20:19:49.845Z,8.27
2023-05-15T20:21:54.299Z,7.63
2023-05-15T20:23:57.328Z,10.02
2023-05-15T20:26:00.425Z,5.28
2023-05-15T20:28:05.525Z,10.27
2023-05-15T20:30:09.743Z,9.80
2023-05-15T20:32:14.260Z,14.85
2023-05-15T20:34:17.617Z,10.20
2023-05-15T20:36:23.010Z,10.05
2023-05-15T20:38:28.658Z,9.63
2023-05-15T20:40:31.670Z,11.65
2023-05-15T20:42:34.520Z,12.13
2023-05-15T20:44:39.609Z,11.60
2023-05-15T20:46:45.207Z,17.58
2023-05-15T20:48:48.267Z,16.92
2023-05-15T20:50:53.409Z,15.68
2023-05-15T20:52:56.339Z,11.00
2023-05-15T20:55:00.756Z,12.68
2023-05-15T20:57:03.761Z,17.15
2023-05-15T20:59:06.682Z,16.77
2023-05-15T21:01:09.706Z,15.02
2023-05-15T21:03:13.577Z,11.55
2023-05-15T21:05:16.774Z,11.90
2023-05-15T21:07:19.876Z,13.95
2023-05-15T21:09:22.881Z,12.45
2023-05-15T21:11:28.961Z,16.88
2023-05-15T21:13:32.003Z,9.05
2023-05-15T21:15:34.868Z,12.07
2023-05-15T21:17:37.878Z,7.80
2023-05-15T21:19:40.799Z,13.10
2023-05-15T21:21:43.961Z,7.95
2023-05-15T21:23:47.407Z,6.93
2023-05-15T21:25:50.575Z,6.68
2023-05-15T21:27:55.670Z,11.98
2023-05-15T21:29:59.032Z,6.90
2023-05-15T21:32:02.272Z,9.00
2023-05-15T21:34:05.251Z,7.45
2023-05-15T21:36:08.680Z,5.35
2023-05-15T21:38:11.678Z,6.95
2023-05-15T21:40:14.671Z,6.03
2023-05-15T21:42:17.878Z,7.45
2023-05-15T21:44:22.190Z,8.73
2023-05-15T21:46:25.148Z,6.45
2023-05-15T21:48:28.029Z,7.50
2023-05-15T21:50:31.008Z,6.97
2023-05-15T21:52:34.047Z,11.45
2023-05-15T21:54:36.956Z,12.00
2023-05-15T21:56:39.804Z,10.57
2023-05-15T21:58:42.876Z,11.15
2023-05-15T22:00:47.167Z,9.10
2023-05-15T22:02:50.221Z,8.77
2023-05-15T22:04:53.035Z,12.20
2023-05-15T22:06:55.954Z,9.60
2023-05-15T22:08:58.755Z,11.65
2023-05-15T22:11:01.724Z,11.35
2023-05-15T22:13:04.610Z,10.40
2023-05-15T22:15:08.891Z,9.80
2023-05-15T22:17:13.398Z,6.55
2023-05-15T22:19:29.034Z,8.88
2023-05-15T22:21:36.164Z,6.85
2023-05-15T22:23:39.098Z,14.07
2023-05-15T22:25:42.154Z,7.93
2023-05-15T22:27:45.934Z,12.27
2023-05-15T22:29:48.791Z,7.53
2023-05-15T22:31:51.878Z,6.38
2023-05-15T22:33:56.636Z,7.57
2023-05-15T22:35:59.596Z,7.93
2023-05-15T22:38:02.547Z,7.47
2023-05-15T22:40:07.786Z,8.52
2023-05-15T22:42:10.952Z,7.22
2023-05-15T22:44:14.166Z,9.32
2023-05-15T22:46:17.244Z,7.10
2023-05-15T22:48:20.246Z,9.85
2023-05-15T22:50:24.753Z,8.32
2023-05-15T22:52:27.795Z,7.38
2023-05-15T22:54:30.761Z,11.57
2023-05-15T22:56:33.656Z,7.38
2023-05-15T22:58:36.684Z,10.75
2023-05-15T23:00:39.645Z,7.22
2023-05-15T23:02:43.502Z,7.20
2023-05-15T23:04:47.930Z,10.80
2023-05-15T23:06:52.292Z,12.05
2023-05-15T23:08:55.173Z,9.45
2023-05-15T23:10:58.197Z,8.50
2023-05-15T23:13:01.274Z,9.20
2023-05-15T23:15:04.802Z,6.38
2023-05-15T23:17:07.774Z,7.25
2023-05-15T23:19:10.777Z,9.40
2023-05-15T23:21:13.655Z,7.10
2023-05-15T23:23:19.498Z,8.15
2023-05-15T23:25:22.788Z,8.18
2023-05-15T23:27:25.760Z,9.75
2023-05-15T23:29:28.772Z,11.50
2023-05-15T23:31:33.186Z,10.23
2023-05-15T23:33:37.150Z,10.13
2023-05-15T23:35:40.146Z,7.80
2023-05-15T23:37:43.275Z,8.57
2023-05-15T23:39:47.795Z,8.38
2023-05-15T23:41:50.835Z,16.67
2023-05-15T23:43:54.805Z,6.65
2023-05-15T23:45:57.754Z,13.68
2023-05-15T23:48:00.614Z,12.98
2023-05-15T23:50:03.998Z,9.00
2023-05-15T23:52:07.645Z,12.00
2023-05-15T23:54:11.928Z,12.32
2023-05-15T23:56:16.496Z,9.98
2023-05-15T23:58:19.552Z,7.87
